createdAt,value
2023-03-28T00:01:17.277Z,1.70
2023-03-28T00:06:19.091Z,1.30
2023-03-28T00:11:22.043Z,1.60
2023-03-28T00:16:25.637Z,1.10
2023-03-28T00:21:32.451Z,1.40
2023-03-28T00:26:35.673Z,1.40
2023-03-28T00:31:38.945Z,1.10
2023-03-28T00:36:41.606Z,1.10
2023-03-28T00:41:44.406Z,1.30
2023-03-28T00:46:46.399Z,1.30
2023-03-28T00:51:57.229Z,1.30
2023-03-28T00:57:01.314Z,1.60
2023-03-28T01:02:03.369Z,1.20
2023-03-28T01:07:06.053Z,1.37
2023-03-28T01:12:11.116Z,1.70
2023-03-28T01:17:12.875Z,1.10
2023-03-28T01:22:56.502Z,1.70
2023-03-28T01:28:34.083Z,1.50
2023-03-28T01:33:52.090Z,1.50
2023-03-28T01:39:04.981Z,1.20
2023-03-28T01:44:14.924Z,1.57
2023-03-28T01:49:26.641Z,1.97
2023-03-28T01:54:37.383Z,1.73
2023-03-28T01:59:43.428Z,1.40
2023-03-28T02:05:02.868Z,1.93
2023-03-28T02:10:06.818Z,2.00
2023-03-28T02:15:23.723Z,1.60
2023-03-28T02:20:44.913Z,1.90
2023-03-28T02:26:09.622Z,1.60
2023-03-28T02:31:29.846Z,1.98
2023-03-28T02:37:05.541Z,2.13
2023-03-28T02:42:23.609Z,2.50
2023-03-28T02:47:35.449Z,2.20
2023-03-28T02:52:37.001Z,2.30
2023-03-28T02:57:43.335Z,1.63
2023-03-28T03:02:49.313Z,1.75
2023-03-28T03:07:52.120Z,1.65
2023-03-28T03:12:54.089Z,2.10
2023-03-28T03:17:56.213Z,2.23
2023-03-28T03:23:01.274Z,2.00
2023-03-28T03:28:03.272Z,2.57
2023-03-28T03:33:05.870Z,2.00
2023-03-28T03:38:08.400Z,1.33
2023-03-28T03:43:10.045Z,1.30
2023-03-28T03:48:13.967Z,0.87
2023-03-28T03:53:16.513Z,1.00
2023-03-28T03:58:24.986Z,1.13
2023-03-28T04:03:26.998Z,1.23
2023-03-28T04:08:29.343Z,0.90
2023-03-28T04:13:30.983Z,1.10
2023-03-28T04:18:36.349Z,1.23
2023-03-28T04:23:43.752Z,1.00
2023-03-28T04:29:05.905Z,1.30
2023-03-28T04:34:10.946Z,1.30
2023-03-28T04:39:22.903Z,1.10
2023-03-28T04:44:43.072Z,1.00
2023-03-28T04:49:48.714Z,1.33
2023-03-28T04:54:51.459Z,1.20
2023-03-28T04:59:56.575Z,1.40
2023-03-28T05:05:18.495Z,1.30
2023-03-28T05:10:20.308Z,1.40
2023-03-28T05:15:23.376Z,1.07
2023-03-28T05:20:55.137Z,1.20
2023-03-28T05:25:58.893Z,1.27
2023-03-28T05:31:03.953Z,1.20
2023-03-28T05:36:06.295Z,1.43
2023-03-28T05:41:08.629Z,1.60
2023-03-28T05:46:10.853Z,1.60
2023-03-28T05:51:17.048Z,1.53
2023-03-28T05:56:18.669Z,1.37
2023-03-28T06:01:23.254Z,1.67
2023-03-28T06:06:28.884Z,1.43
2023-03-28T06:11:30.717Z,1.20
2023-03-28T06:16:43.668Z,1.70
2023-03-28T06:21:45.778Z,1.70
2023-03-28T06:26:47.475Z,1.70
2023-03-28T06:31:52.837Z,1.50
2023-03-28T06:36:54.590Z,1.73
2023-03-28T06:42:02.399Z,1.57
2023-03-28T06:47:12.309Z,1.73
2023-03-28T06:52:15.742Z,1.97
2023-03-28T06:57:19.436Z,1.60
2023-03-28T07:02:23.747Z,1.50
2023-03-28T07:07:29.714Z,1.70
2023-03-28T07:12:31.432Z,1.67
2023-03-28T07:17:33.163Z,1.57
2023-03-28T07:22:35.370Z,1.50
2023-03-28T07:27:36.931Z,1.60
2023-03-28T07:32:48.053Z,1.80
2023-03-28T07:37:55.786Z,1.40
2023-03-28T07:43:20.116Z,1.70
2023-03-28T07:48:22.491Z,1.63
2023-03-28T07:53:24.065Z,1.60
2023-03-28T07:58:26.098Z,1.57
2023-03-28T08:03:30.878Z,1.57
2023-03-28T08:08:33.050Z,1.50
2023-03-28T08:13:53.664Z,1.40
2023-03-28T08:19:09.986Z,1.30
2023-03-28T08:24:32.893Z,1.50
2023-03-28T08:29:40.564Z,1.50
2023-03-28T08:34:42.424Z,1.40
2023-03-28T08:39:49.862Z,1.27
2023-03-28T08:45:08.745Z,1.37
2023-03-28T08:50:16.757Z,1.30
2023-03-28T08:55:41.404Z,1.50
2023-03-28T09:00:42.962Z,1.70
2023-03-28T09:06:02.224Z,1.33
2023-03-28T09:11:30.819Z,1.40
2023-03-28T09:16:51.682Z,1.20
2023-03-28T09:22:29.023Z,1.20
2023-03-28T09:27:33.672Z,1.40
2023-03-28T09:32:40.988Z,1.47
2023-03-28T09:37:44.820Z,1.57
2023-03-28T09:43:13.120Z,1.00
2023-03-28T09:48:31.133Z,1.00
2023-03-28T09:53:37.623Z,0.90
2023-03-28T09:58:52.983Z,0.93
2023-03-28T10:04:15.534Z,0.80
2023-03-28T10:09:54.571Z,1.10
2023-03-28T10:14:58.227Z,0.83
2023-03-28T10:20:24.022Z,0.90
2023-03-28T10:25:37.750Z,0.80
2023-03-28T10:30:40.617Z,1.07
2023-03-28T10:35:52.899Z,0.80
2023-03-28T10:41:09.432Z,0.73
2023-03-28T10:46:37.921Z,0.70
2023-03-28T10:52:22.818Z,0.80
2023-03-28T10:57:30.967Z,0.90
2023-03-28T11:03:15.709Z,1.60
2023-03-28T11:08:42.305Z,1.50
2023-03-28T11:14:08.642Z,1.00
2023-03-28T11:19:34.256Z,1.00
2023-03-28T11:24:40.771Z,0.90
2023-03-28T11:30:26.750Z,0.90
2023-03-28T11:35:59.500Z,0.80
2023-03-28T11:41:11.976Z,0.97
2023-03-28T11:46:51.303Z,1.00
2023-03-28T11:52:07.977Z,1.10
2023-03-28T11:57:25.306Z,1.08
2023-03-28T12:02:41.663Z,1.20
2023-03-28T12:07:50.570Z,1.17
2023-03-28T12:13:12.938Z,1.03
2023-03-28T12:18:41.525Z,1.30
2023-03-28T12:24:11.600Z,1.42
2023-03-28T12:29:51.109Z,1.20
2023-03-28T12:35:32.823Z,1.00
2023-03-28T12:40:59.466Z,1.30
2023-03-28T12:46:04.468Z,1.30
2023-03-28T12:51:18.101Z,1.20
2023-03-28T12:56:21.748Z,1.13
2023-03-28T13:01:41.203Z,1.38
2023-03-28T13:07:37.086Z,1.13
2023-03-28T13:12:53.697Z,1.10
2023-03-28T13:18:23.144Z,1.20
2023-03-28T13:23:36.610Z,1.00
2023-03-28T13:28:42.602Z,1.33
2023-03-28T13:33:47.465Z,1.50
2023-03-28T13:39:22.906Z,1.30
2023-03-28T13:44:41.467Z,1.40
2023-03-28T13:49:53.971Z,1.65
2023-03-28T13:55:16.570Z,1.40
2023-03-28T14:00:22.458Z,1.30
2023-03-28T14:05:29.425Z,1.52
2023-03-28T14:10:36.006Z,1.70
2023-03-28T14:15:39.790Z,1.48
2023-03-28T14:20:42.296Z,1.35
2023-03-28T14:25:43.876Z,1.27
2023-03-28T14:30:45.758Z,1.43
2023-03-28T14:36:18.466Z,1.27
2023-03-28T14:41:28.268Z,1.67
2023-03-28T14:46:31.553Z,1.75
2023-03-28T14:51:42.845Z,1.58
2023-03-28T14:56:45.269Z,1.60
2023-03-28T15:01:49.143Z,1.52
2023-03-28T15:06:55.487Z,1.52
2023-03-28T15:11:57.621Z,1.40
2023-03-28T15:16:59.882Z,1.40
2023-03-28T15:22:08.697Z,1.30
2023-03-28T15:27:20.377Z,1.50
2023-03-28T15:32:22.202Z,1.52
2023-03-28T15:37:26.214Z,1.25
2023-03-28T15:42:34.135Z,1.42
2023-03-28T15:47:35.835Z,1.25
2023-03-28T15:52:41.528Z,1.63
2023-03-28T15:57:45.791Z,1.58
2023-03-28T16:02:47.530Z,1.60
2023-03-28T16:07:50.697Z,2.00
2023-03-28T16:12:52.653Z,2.13
2023-03-28T16:18:12.859Z,1.70
2023-03-28T16:23:26.224Z,1.70
2023-03-28T16:28:27.944Z,2.00
2023-03-28T16:33:29.628Z,2.15
2023-03-28T16:38:31.203Z,1.90
2023-03-28T16:43:32.810Z,2.28
2023-03-28T16:48:35.006Z,2.20
2023-03-28T16:53:40.297Z,2.00
2023-03-28T16:58:42.676Z,2.13
2023-03-28T17:03:47.431Z,2.13
2023-03-28T17:08:49.440Z,2.03
2023-03-28T17:13:52.568Z,1.97
2023-03-28T17:18:54.892Z,2.20
2023-03-28T17:23:56.700Z,2.60
2023-03-28T17:28:58.415Z,2.45
2023-03-28T17:34:00.264Z,1.98
2023-03-28T17:39:03.042Z,2.20
2023-03-28T17:44:09.223Z,1.80
2023-03-28T17:49:10.897Z,2.30
2023-03-28T17:54:12.567Z,2.30
2023-03-28T17:59:14.198Z,2.13
2023-03-28T18:04:17.507Z,2.25
2023-03-28T18:09:39.832Z,2.33
2023-03-28T18:14:41.607Z,2.22
2023-03-28T18:19:43.230Z,2.22
2023-03-28T18:24:44.792Z,2.47
2023-03-28T18:29:47.556Z,2.70
2023-03-28T18:34:49.267Z,2.33
2023-03-28T18:39:50.814Z,2.45
2023-03-28T18:44:52.700Z,2.22
2023-03-28T18:49:54.390Z,2.58
2023-03-28T18:54:55.985Z,2.60
2023-03-28T18:59:57.552Z,3.28
2023-03-28T19:04:59.111Z,2.85
2023-03-28T19:10:00.987Z,2.78
2023-03-28T19:15:06.258Z,3.15
2023-03-28T19:20:12.581Z,2.72
2023-03-28T19:25:14.375Z,3.15
2023-03-28T19:30:16.134Z,2.92
2023-03-28T19:35:17.698Z,3.83
2023-03-28T19:40:19.271Z,3.13
2023-03-28T19:45:20.947Z,3.08
2023-03-28T19:50:23.191Z,3.13
2023-03-28T19:55:25.010Z,3.53
2023-03-28T20:00:26.701Z,2.90
2023-03-28T20:05:28.317Z,2.60
2023-03-28T20:10:29.889Z,3.28
2023-03-28T20:15:32.150Z,3.38
2023-03-28T20:20:33.774Z,3.25
2023-03-28T20:25:36.790Z,3.53
2023-03-28T20:30:38.760Z,3.90
2023-03-28T20:35:43.499Z,3.57
2023-03-28T20:40:45.175Z,3.85
2023-03-28T20:45:54.294Z,3.65
2023-03-28T20:50:56.074Z,4.20
2023-03-28T20:56:03.379Z,4.57
2023-03-28T21:01:06.582Z,4.30
2023-03-28T21:06:08.443Z,4.70
2023-03-28T21:11:10.191Z,4.88
2023-03-28T21:16:14.130Z,4.80
2023-03-28T21:21:17.854Z,5.15
2023-03-28T21:26:21.501Z,4.70
2023-03-28T21:31:25.998Z,4.30
2023-03-28T21:36:28.624Z,4.87
2023-03-28T21:41:30.243Z,4.90
2023-03-28T21:46:31.846Z,4.73
2023-03-28T21:51:33.782Z,4.60
2023-03-28T21:56:35.574Z,4.90
2023-03-28T22:01:37.469Z,4.67
2023-03-28T22:06:39.108Z,4.17
2023-03-28T22:11:42.094Z,5.00
2023-03-28T22:16:43.752Z,5.03
2023-03-28T22:21:45.382Z,4.80
2023-03-28T22:26:47.993Z,4.27
2023-03-28T22:31:49.790Z,4.20
2023-03-28T22:36:51.847Z,3.73
2023-03-28T22:41:54.118Z,4.17
2023-03-28T22:47:02.041Z,3.70
2023-03-28T22:52:04.805Z,3.80
2023-03-28T22:57:06.977Z,4.30
2023-03-28T23:02:08.768Z,4.17
2023-03-28T23:07:12.392Z,3.63
2023-03-28T23:12:14.100Z,4.03
2023-03-28T23:17:15.676Z,3.90
2023-03-28T23:22:17.390Z,3.80
2023-03-28T23:27:19.655Z,3.87
2023-03-28T23:32:21.236Z,3.87
2023-03-28T23:37:26.033Z,3.47
2023-03-28T23:42:27.576Z,3.35
2023-03-28T23:47:29.240Z,3.03
2023-03-28T23:52:31.255Z,3.13
2023-03-28T23:57:32.998Z,3.03
